AIRPORT_AIRPORT_METAR
METAR FOR DTTJ
ADDS - METARS form results

(1522 UTC 18 August 2019)
Data provider http://aviationweather.gov/metar/data/
 
METAR text: DTTJ 181500Z 11010KT 080V140 CAVOK 34/11 Q1013 NOSIG
Conditions at: DTTJ (DJERBA MELLITA , TN) observed 1500 UTC 18 August 2019
Temperature: 34.0°C (93°F)
Dewpoint: 11.0°C (52°F) [RH = 25%]
Pressure (altimeter): 29.91 inches Hg (1013.0 mb)
Winds: from the ESE (110 degrees) at 12 MPH (10 knots; 5.1 m/s)
Visibility: 6 or more miles (10+ km)
Ceiling: ceiling and visibility are OK
Clouds: unknown
Weather: no significant weather observed at this time

METAR text: DTTJ 181430Z 12010KT 080V150 CAVOK 34/12 Q1013 NOSIG
Conditions at: DTTJ (DJERBA MELLITA , TN) observed 1430 UTC 18 August 2019
Temperature: 34.0°C (93°F)
Dewpoint: 12.0°C (54°F) [RH = 26%]
Pressure (altimeter): 29.91 inches Hg (1013.0 mb)
Winds: from the ESE (120 degrees) at 12 MPH (10 knots; 5.1 m/s)
Visibility: 6 or more miles (10+ km)
Ceiling: ceiling and visibility are OK
Clouds: unknown
Weather: no significant weather observed at this time

Forecast for: DTTJ (DJERBA MELLITA , TN)
Text: TAF DTTJ 181100Z 1812/1912 04013KT CAVOK
Forecast period: 1200 UTC 18 August 2019 to 1200 UTC 19 August 2019
Forecast type: FROM: standard forecast or significant change
Winds: from the NE (40 degrees) at 15 MPH (13 knots; 6.7 m/s)
Visibility: 6 or more miles 10+ km)
Ceiling: unknown
Clouds: missing
Weather: NSW  (no significant weather)
Text: BECMG 1812/1814 10015KT
Forecast period: 1200 UTC 18 August 2019 to 1200 UTC 19 August 2019
Forecast type: BECOMING: Conditions expected to become as follows by 1400 UTC 18 August 2019
Winds: from the E (100 degrees) at 17 MPH (15 knots; 7.7 m/s)
Visibility: 6 or more miles 10+ km)
Ceiling: unknown
Clouds: missing
Weather: NSW  (no significant weather)

 AIRPORT_AIRPORT_MAP

 AIRPORT_RUNWAY_INFO
AIRPORT_RUNWAY 09 AIRPORT_RUNWAY_LENGTH 10171 ft AIRPORT_RUNWAY_WIDTH 148 ft
AIRPORT_RUNWAY_ELEVATION 9 ft AIRPORT_RUNWAY_THRESHOLD 0 ft AIRPORT_RUNWAY_HEADING 88
AIRPORT_RUNWAY 27 AIRPORT_RUNWAY_LENGTH 10171 ft AIRPORT_RUNWAY_WIDTH 148 ft
AIRPORT_RUNWAY_ELEVATION 18 ft AIRPORT_RUNWAY_THRESHOLD 0 ft AIRPORT_RUNWAY_HEADING 268

 AIRPORT_AIRPORT_FREQUENCIES
AIRPORT_AIRPORT_NAVAIDS_TYPE APP AIRPORT_AIRPORT_NAVAIDS_NAME DJERBA APP AIRPORT_AIRPORT_NAVAIDS_FREQ 120.3 MHZ
AIRPORT_AIRPORT_NAVAIDS_TYPE TWR AIRPORT_AIRPORT_NAVAIDS_NAME DJERBA TWR AIRPORT_AIRPORT_NAVAIDS_FREQ 118.15 MHZ

 AIRPORT_AIRPORT_NAVAIDS
AIRPORT_AIRPORT_NAVAIDS_TYPE VOR-DME AIRPORT_AIRPORT_NAVAIDS_NAME Djerba AIRPORT_AIRPORT_NAVAIDS_FREQ 112200 KHZ



Copyright © 2005-2019 - Virtuel Air Alsace - Tous droits réservés